Skip Navigation Links
NOAA logo - Click to go to the NOAA homepage
NOAA's National Weather Service
Alaska Aviation Weather Unit
  NWS logo - Click to go to the NWS homepage
Left Navbar Graphic     22 AKDT = 06 GMT

   
NOAA is celebrating 200 years of science, service, and stewardship. Visit the NOAA 200th celebration Web site to learn more.
USA.gov is the U.S. Government's official Web portal to all Federal, state and local government Web resources and services.
Facebook
NWS on Facebook

Important Change Regarding the AAWU Web Presence

 

Over the last several months, the AAWU has been working to navigate its webpages to a nationally supported server. Security, as well as other needs, have necessitated the change.  We have been given an extension for the site changeover while we diligently work at addressing feedback received. As of July 14, 2017, aawu.arh.noaa.gov will be discontinued. The new AAWU web address is weather.gov/aawu. It is now live and will run in-parallel with the old site until it is discontinued on July 14, 2017. Please continue to send any feedback or questions regarding the new webpages to nws.ar.aawu.webauthors@noaa.gov.  Thank you for your patience during this time of transition.
AAWU Home :: Display TAF Add Bookmark
TAF CYFS 260538Z 2606/2618 VRB03KT P6SM SCT100 BKN200
    FM260900 VRB03KT P6SM BKN100 BKN200 PROB30 2609/2615 VRB15G25KT
     P6SM -TSRA BKN060CB
    RMK NXT FCST BY 261200Z=

METAR CYFS 260000Z 16004KT 130V290 15SM SCT065 BKN210 27/12 A2983 RMK CU3CI2 SLP107 DENSITY ALT 2200FT= METAR CYFS 260100Z 16004KT 15SM FEW065 SCT210 27/12 A2983 RMK CU2CI2 SLP104 DENSITY ALT 2300FT= METAR CYFS 260200Z 16005KT 150V240 15SM FEW050 SCT210 27/12 A2983 RMK CU1CI3 SLP104 DENSITY ALT 2300FT= METAR CYFS 260300Z 17005KT 15SM FEW050 SCT210 26/13 A2982 RMK CU1CI2 SLP102 DENSITY ALT 2100FT= METAR CYFS 260400Z 00000KT 15SM FEW110 FEW210 24/14 A2983 RMK AC1CI2 AC TR SLP104 DENSITY ALT 1900FT= METAR CYFS 260500Z VRB02KT 15SM FEW110 SCT210 21/13 A2983 RMK AC2CI1 SLP105 DENSITY ALT 1500FT= METAR CYFS 260600Z VRB02KT 15SM SCT085 BKN160 20/13 A2984 RMK AC3AC2 SLP109 DENSITY ALT 1400FT=
 Alaska TAF Map

NOAA's National Weather Service
Alaska Aviation Weather Unit
6930 Sand Lake Road
Anchorage, AK 99502-1845
Disclaimer
Credits
Glossary
Privacy Policy
About Us
Career Opportunities
Contact AAWU Internet Services Site last modified: April, 17th 2012